Аэропорт: Богашево. Томск

ICAO: UNTT

METAR:
2019-07-23 18:00:00
UNTT 231800Z 19002MPS 6000 FEW048 12/10 Q1003 NOSIG RMK QFE737
METAR:
2019-07-23 17:00:00
TAF UNTT 231700Z 2318/2403 19003MPS 5000 FU SCT040 TEMPO 2318/2320 3100 FU SCT011 TEMPO 2320/2403 0500 FG SCT002